Time;durP1;ratioP1;P1;durP2;ratioP2;P2;SDS_P1;SDS_P2;PMS_P1;PMS_P2;Temp;Humidity;BMP_temperature;BMP_pressure;BME280_temperature;BME280_humidity;BME280_pressure;Samples;Min_cycle;Max_cycle;Signal;HPM_P1;HPM_P2
2021/04/06 00:00:09;;;;;;;3.23;2.17;;;3.10;67.00;;;;;;5045933;28;20544;-89
2021/04/06 00:02:36;;;;;;;6.93;2.33;;;3.20;67.00;;;;;;5045248;28;20472;-90
2021/04/06 00:05:07;;;;;;;5.40;2.67;;;3.00;65.10;;;;;;5045432;28;20193;-90
2021/04/06 00:07:33;;;;;;;6.00;2.43;;;2.50;67.10;;;;;;5045274;28;20173;-90
2021/04/06 00:10:05;;;;;;;4.33;2.37;;;2.40;67.50;;;;;;5045378;28;20211;-89
2021/04/06 00:12:31;;;;;;;6.60;2.57;;;2.40;69.00;;;;;;5045477;28;20181;-89
2021/04/06 00:14:58;;;;;;;9.03;2.33;;;2.30;67.70;;;;;;5044383;28;20197;-90
2021/04/06 00:17:26;;;;;;;6.07;2.40;;;2.30;67.30;;;;;;5043765;28;20255;-89
2021/04/06 00:19:55;;;;;;;4.90;2.17;;;2.40;68.80;;;;;;5045213;28;20169;-90
2021/04/06 00:22:22;;;;;;;2.63;1.87;;;2.50;67.60;;;;;;5045303;28;20219;-90
2021/04/06 00:24:51;;;;;;;2.43;2.10;;;2.10;68.00;;;;;;5045151;28;20599;-90
2021/04/06 00:27:20;;;;;;;5.33;2.30;;;2.00;69.50;;;;;;5043801;28;20185;-90
2021/04/06 00:29:51;;;;;;;3.27;2.20;;;2.20;69.70;;;;;;5044143;28;20272;-90
2021/04/06 00:32:19;;;;;;;3.33;2.30;;;2.20;68.40;;;;;;5027584;28;20197;-89
2021/04/06 00:34:45;;;;;;;5.50;2.30;;;2.30;69.00;;;;;;5007578;28;20225;-90
2021/04/06 00:37:16;;;;;;;2.97;1.87;;;2.20;69.00;;;;;;5023958;28;20267;-90
2021/04/06 00:39:43;;;;;;;5.63;2.40;;;2.20;70.10;;;;;;5025057;28;20169;-90
2021/04/06 00:42:20;;;;;;;3.73;2.10;;;2.20;68.70;;;;;;5024006;28;20185;-91
2021/04/06 00:44:55;;;;;;;3.97;2.00;;;2.20;68.90;;;;;;5025203;28;20243;-90
2021/04/06 00:47:27;;;;;;;5.13;2.13;;;2.30;69.80;;;;;;5040683;28;20165;-90
2021/04/06 00:49:58;;;;;;;6.27;2.30;;;2.10;68.70;;;;;;5040062;28;20188;-89
2021/04/06 00:52:25;;;;;;;3.57;2.40;;;2.10;69.20;;;;;;5024979;28;20162;-90
2021/04/06 00:54:53;;;;;;;4.83;2.43;;;2.00;69.30;;;;;;5040324;28;20210;-90
2021/04/06 00:57:22;;;;;;;3.90;1.90;;;1.80;69.40;;;;;;5023875;28;20209;-89
2021/04/06 01:00:16;;;;;;;3.40;2.33;;;1.50;71.60;;;;;;5024856;28;20181;-91
2021/04/06 01:03:07;;;;;;;5.97;2.07;;;1.30;71.80;;;;;;5028029;28;20200;-90
2021/04/06 01:05:59;;;;;;;6.17;2.53;;;1.30;71.90;;;;;;5045449;28;20260;-90
2021/04/06 01:08:30;;;;;;;7.30;2.13;;;1.10;71.90;;;;;;5044877;28;20170;-90
2021/04/06 01:10:57;;;;;;;5.27;2.30;;;0.90;73.00;;;;;;5048980;28;20153;-93
2021/04/06 01:13:27;;;;;;;4.67;2.37;;;0.90;72.60;;;;;;5057474;28;20180;-91
2021/04/06 01:15:57;;;;;;;5.07;2.30;;;1.00;72.60;;;;;;5057990;28;20189;-90
2021/04/06 01:18:24;;;;;;;4.10;2.20;;;1.00;73.00;;;;;;5049514;28;20208;-90
2021/04/06 01:20:51;;;;;;;3.90;1.93;;;0.90;73.60;;;;;;5044439;28;20191;-90
2021/04/06 01:23:20;;;;;;;3.93;1.93;;;0.90;73.20;;;;;;5044014;28;20185;-89
2021/04/06 01:25:50;;;;;;;7.80;2.33;;;0.90;72.80;;;;;;5044740;28;20276;-90
2021/04/06 01:28:16;;;;;;;5.70;2.30;;;0.90;72.50;;;;;;5042943;28;20172;-90
2021/04/06 01:30:50;;;;;;;2.77;2.00;;;0.80;72.90;;;;;;5046000;28;20223;-90
2021/04/06 01:33:16;;;;;;;5.33;2.30;;;0.90;72.90;;;;;;5048195;28;20180;-90
2021/04/06 01:35:46;;;;;;;2.90;1.87;;;0.80;73.00;;;;;;5049131;28;20220;-90
2021/04/06 01:38:14;;;;;;;4.33;1.90;;;0.80;74.70;;;;;;5048922;28;20212;-90
2021/04/06 01:40:41;;;;;;;2.17;1.93;;;0.80;74.00;;;;;;5047810;28;20691;-90
2021/04/06 01:43:09;;;;;;;4.60;2.20;;;0.70;74.20;;;;;;5047865;28;20191;-90
2021/04/06 01:45:44;;;;;;;4.43;2.20;;;0.70;76.30;;;;;;5047212;28;20200;-90
2021/04/06 01:48:12;;;;;;;3.37;2.13;;;0.80;75.10;;;;;;5048404;28;20239;-91
2021/04/06 01:50:38;;;;;;;3.07;1.83;;;0.70;73.00;;;;;;5048625;28;20216;-91
2021/04/06 01:53:05;;;;;;;2.67;1.90;;;0.60;73.30;;;;;;5047700;28;20280;-90
2021/04/06 01:55:33;;;;;;;8.37;2.47;;;0.60;73.60;;;;;;5047758;28;20205;-90
2021/04/06 01:58:00;;;;;;;7.87;3.40;;;0.40;74.80;;;;;;5048144;28;20209;-90
2021/04/06 02:00:31;;;;;;;4.10;2.03;;;0.40;75.20;;;;;;5015656;28;20253;-90
2021/04/06 02:03:03;;;;;;;6.13;2.40;;;0.30;75.40;;;;;;5049158;28;20208;-90
2021/04/06 02:05:29;;;;;;;5.97;2.77;;;0.40;75.20;;;;;;5049396;28;20703;-90
2021/04/06 02:08:01;;;;;;;3.20;1.80;;;0.30;75.10;;;;;;5047023;28;20272;-89
2021/04/06 02:10:27;;;;;;;3.53;2.33;;;0.30;75.50;;;;;;5059048;28;20165;-92
2021/04/06 02:12:53;;;;;;;3.80;2.53;;;0.30;76.50;;;;;;5058844;28;20180;-93
2021/04/06 02:15:19;;;;;;;3.73;2.13;;;0.30;76.30;;;;;;5043856;28;20192;-93
2021/04/06 02:17:53;;;;;;;3.23;2.20;;;0.30;76.40;;;;;;5060669;28;20313;-92
2021/04/06 02:20:24;;;;;;;4.10;2.43;;;0.30;76.10;;;;;;5060761;28;20197;-93
2021/04/06 02:23:03;;;;;;;3.33;2.23;;;0.40;76.20;;;;;;5061275;28;20181;-91
2021/04/06 02:25:30;;;;;;;3.63;2.07;;;0.40;76.30;;;;;;5061060;28;20189;-93
2021/04/06 02:27:57;;;;;;;5.60;2.53;;;0.40;76.20;;;;;;5061045;28;20176;-94
2021/04/06 02:30:30;;;;;;;4.43;2.70;;;0.30;76.50;;;;;;5052188;28;20181;-89
2021/04/06 02:33:00;;;;;;;3.00;2.33;;;0.50;76.20;;;;;;5045814;28;20578;-90
2021/04/06 02:35:26;;;;;;;3.87;2.60;;;0.60;75.70;;;;;;5044557;28;20216;-90
2021/04/06 02:37:52;;;;;;;3.27;2.40;;;0.50;76.00;;;;;;5044436;28;20587;-90
2021/04/06 02:40:19;;;;;;;5.10;2.70;;;0.50;76.00;;;;;;5044298;28;20196;-89
2021/04/06 02:42:46;;;;;;;4.83;2.37;;;0.40;76.00;;;;;;5044786;28;20181;-89
2021/04/06 02:45:29;;;;;;;5.00;2.70;;;0.30;76.40;;;;;;5043020;28;20205;-88
2021/04/06 02:48:07;;;;;;;6.60;2.60;;;0.40;75.90;;;;;;5044425;28;20283;-88
2021/04/06 02:50:34;;;;;;;3.97;1.93;;;0.40;75.90;;;;;;5046828;28;20161;-89
2021/04/06 02:53:05;;;;;;;3.93;2.63;;;0.50;76.00;;;;;;5046151;28;20197;-89
2021/04/06 02:55:33;;;;;;;5.10;2.50;;;0.60;75.50;;;;;;5045271;28;20280;-89
2021/04/06 02:57:59;;;;;;;5.00;2.43;;;0.50;75.90;;;;;;5044704;28;20215;-89
2021/04/06 03:00:28;;;;;;;5.70;2.53;;;0.50;75.70;;;;;;5044946;28;20177;-88
2021/04/06 03:02:54;;;;;;;6.30;2.47;;;0.50;75.10;;;;;;5044991;28;20185;-88
2021/04/06 03:05:31;;;;;;;6.03;2.27;;;0.50;75.40;;;;;;5043315;28;20201;-89
2021/04/06 03:07:58;;;;;;;11.00;2.93;;;0.50;76.40;;;;;;5044559;28;20216;-89
2021/04/06 03:10:24;;;;;;;7.20;2.53;;;0.60;75.00;;;;;;5044587;28;20181;-89
2021/04/06 03:12:51;;;;;;;5.07;2.40;;;0.70;74.70;;;;;;5043166;28;20433;-89
2021/04/06 03:15:27;;;;;;;5.67;2.17;;;0.70;74.70;;;;;;5044995;28;20201;-89
2021/04/06 03:17:55;;;;;;;3.03;2.07;;;0.70;74.90;;;;;;5044015;28;20275;-89
2021/04/06 03:20:26;;;;;;;3.17;2.43;;;0.60;75.50;;;;;;5043166;28;20189;-89
2021/04/06 03:22:54;;;;;;;5.73;2.70;;;0.60;74.80;;;;;;5043503;28;20181;-89
2021/04/06 03:25:21;;;;;;;6.20;2.83;;;0.50;74.80;;;;;;5044240;28;20590;-90
2021/04/06 03:27:50;;;;;;;7.07;2.30;;;0.50;74.60;;;;;;5043312;28;20185;-89
2021/04/06 03:30:39;;;;;;;4.83;2.43;;;0.50;74.60;;;;;;5044448;28;20177;-90
2021/04/06 03:33:09;;;;;;;4.27;2.40;;;0.50;75.30;;;;;;5029356;28;20188;-91
2021/04/06 03:49:12;;;;;;;4.57;2.20;;;0.60;74.90;;;;;;5036256;28;20197;-90
2021/04/06 03:55:18;;;;;;;3.83;2.40;;;0.60;74.00;;;;;;5017765;23;20258;-85
2021/04/06 03:57:48;;;;;;;7.93;2.47;;;0.60;73.30;;;;;;5064531;28;20284;-85
2021/04/06 04:00:17;;;;;;;5.73;3.07;;;0.70;73.90;;;;;;5064795;28;20183;-85
2021/04/06 04:02:43;;;;;;;9.07;2.70;;;0.60;73.20;;;;;;5080829;28;20201;-84
2021/04/06 04:05:10;;;;;;;7.63;2.50;;;0.70;73.10;;;;;;5062517;28;20177;-85
2021/04/06 04:07:36;;;;;;;4.93;2.77;;;0.60;73.90;;;;;;5062224;28;20200;-85
2021/04/06 04:10:05;;;;;;;7.33;2.87;;;0.70;73.20;;;;;;5062983;28;20199;-85
2021/04/06 04:12:33;;;;;;;7.53;2.60;;;0.80;72.70;;;;;;5062354;28;20187;-85
2021/04/06 04:14:59;;;;;;;4.90;2.70;;;0.80;73.80;;;;;;5063375;28;20195;-85
2021/04/06 04:17:26;;;;;;;6.27;2.50;;;0.80;73.30;;;;;;5061404;28;20200;-85
2021/04/06 04:19:54;;;;;;;6.47;2.73;;;0.80;72.20;;;;;;5062254;28;20183;-86
2021/04/06 04:22:20;;;;;;;8.87;2.83;;;0.70;73.40;;;;;;5062470;28;20551;-85
2021/04/06 04:25:15;;;;;;;9.30;3.30;;;0.80;73.10;;;;;;5062267;28;20215;-85
2021/04/06 04:28:52;;;;;;;;;;;;;;;;;;;;;
2021/04/06 04:44:46;;;;;;;5.70;2.70;;;0.60;73.20;;;;;;4813905;29;20772;-85
2021/04/06 04:47:11;;;;;;;4.83;2.50;;;0.40;73.60;;;;;;4976257;28;20251;-86
2021/04/06 04:49:37;;;;;;;6.87;2.57;;;0.50;73.10;;;;;;5023490;28;20181;-86
2021/04/06 04:52:04;;;;;;;9.43;2.90;;;0.40;74.00;;;;;;5040969;28;20177;-85
2021/04/06 04:54:29;;;;;;;8.37;3.30;;;0.40;74.50;;;;;;5054910;28;20208;-86
2021/04/06 04:56:55;;;;;;;5.57;2.57;;;0.50;73.70;;;;;;5060696;28;20733;-86
2021/04/06 04:59:21;;;;;;;7.53;2.73;;;0.50;73.90;;;;;;5061274;28;20196;-85
2021/04/06 05:01:47;;;;;;;6.90;2.63;;;0.50;73.60;;;;;;5043137;28;20184;-85
2021/04/06 05:04:13;;;;;;;10.83;3.23;;;0.50;74.10;;;;;;5061134;28;20196;-85
2021/04/06 05:06:39;;;;;;;10.03;3.23;;;0.40;74.30;;;;;;5061527;28;20187;-86
2021/04/06 05:09:06;;;;;;;6.57;3.33;;;0.40;74.20;;;;;;5061591;28;20597;-86
2021/04/06 05:11:31;;;;;;;6.70;3.00;;;0.50;74.40;;;;;;5059911;28;20233;-86
2021/04/06 05:13:57;;;;;;;8.50;2.60;;;0.60;73.90;;;;;;5057368;28;20264;-86
2021/04/06 05:16:23;;;;;;;8.13;2.73;;;0.60;73.80;;;;;;5039989;28;20179;-85
2021/04/06 05:18:49;;;;;;;6.07;2.83;;;0.60;73.90;;;;;;5059746;28;20192;-82
2021/04/06 05:21:15;;;;;;;4.17;2.43;;;0.70;73.40;;;;;;5059471;28;20176;-85
2021/04/06 05:23:41;;;;;;;7.00;3.10;;;0.60;73.60;;;;;;5063324;28;20208;-84
2021/04/06 05:26:08;;;;;;;6.30;2.70;;;0.60;73.30;;;;;;5060048;28;20547;-85
2021/04/06 05:28:33;;;;;;;9.27;3.30;;;0.70;73.10;;;;;;5061142;28;20191;-88
2021/04/06 05:30:59;;;;;;;6.40;3.03;;;0.70;73.40;;;;;;5059211;28;20184;-87
2021/04/06 05:33:25;;;;;;;9.93;3.07;;;0.60;74.40;;;;;;5059620;28;20208;-83
2021/04/06 05:35:51;;;;;;;6.53;2.67;;;0.60;73.90;;;;;;5061663;28;20192;-82
2021/04/06 05:38:17;;;;;;;8.30;2.90;;;0.70;73.30;;;;;;5062409;28;20227;-86
2021/04/06 05:40:44;;;;;;;7.53;2.80;;;0.80;72.90;;;;;;5061069;28;20191;-85
2021/04/06 05:43:13;;;;;;;5.63;2.60;;;0.80;73.10;;;;;;5061044;28;20287;-83
2021/04/06 05:45:39;;;;;;;9.93;3.10;;;0.70;72.70;;;;;;5060361;28;20176;-82
2021/04/06 05:48:07;;;;;;;7.47;3.10;;;0.70;72.70;;;;;;5044331;28;20214;-83
2021/04/06 05:50:33;;;;;;;8.70;3.00;;;0.80;72.60;;;;;;5061586;28;20575;-83
2021/04/06 05:53:00;;;;;;;4.77;3.00;;;0.80;73.30;;;;;;5058131;28;20220;-85
2021/04/06 05:55:27;;;;;;;4.83;2.43;;;0.70;73.80;;;;;;5058629;28;20192;-85
2021/04/06 05:57:55;;;;;;;6.53;2.80;;;0.70;73.20;;;;;;5058847;28;20285;-87
2021/04/06 06:00:22;;;;;;;7.90;2.80;;;0.70;72.30;;;;;;5058491;28;20191;-84
2021/04/06 06:02:48;;;;;;;4.17;2.73;;;0.80;72.70;;;;;;5042152;28;20247;-88
2021/04/06 06:05:16;;;;;;;7.03;3.10;;;0.70;73.20;;;;;;5055608;28;20677;-87
2021/04/06 06:07:42;;;;;;;9.67;2.97;;;0.70;73.60;;;;;;5056575;28;20189;-87
2021/04/06 06:10:28;;;;;;;4.53;2.20;;;0.70;74.00;;;;;;5056625;28;20181;-87
2021/04/06 06:13:12;;;;;;;7.43;2.67;;;0.80;71.80;;;;;;5055651;28;20216;-85
2021/04/06 06:15:38;;;;;;;7.83;3.37;;;1.00;72.20;;;;;;5056035;28;20214;-86
2021/04/06 06:18:05;;;;;;;6.17;3.47;;;0.90;72.60;;;;;;5043801;28;20200;-86
2021/04/06 06:20:32;;;;;;;8.17;3.13;;;0.90;72.40;;;;;;5060905;28;20240;-87
2021/04/06 06:23:20;;;;;;;6.80;3.47;;;0.90;72.00;;;;;;5063108;28;20200;-86
2021/04/06 06:26:07;;;;;;;5.23;2.97;;;1.00;72.60;;;;;;5062376;28;20251;-87
2021/04/06 06:28:36;;;;;;;11.57;3.33;;;1.00;71.90;;;;;;5075253;28;20180;-86
2021/04/06 06:31:03;;;;;;;8.73;3.23;;;1.00;72.60;;;;;;5078692;28;20153;-86
2021/04/06 06:33:32;;;;;;;6.93;2.67;;;1.00;72.10;;;;;;5077964;28;20200;-88
2021/04/06 06:36:10;;;;;;;8.80;2.80;;;0.90;73.00;;;;;;5045639;28;20192;-88
2021/04/06 06:38:42;;;;;;;3.60;2.80;;;1.00;71.70;;;;;;5055508;28;20176;-88
2021/04/06 06:41:12;;;;;;;5.53;2.30;;;1.10;73.20;;;;;;5065418;28;20184;-87
2021/04/06 06:43:42;;;;;;;5.33;2.70;;;1.20;71.80;;;;;;5063757;28;20208;-88
2021/04/06 06:46:19;;;;;;;7.83;2.60;;;1.20;71.70;;;;;;5045449;28;20188;-88
2021/04/06 06:49:01;;;;;;;12.37;3.30;;;1.30;71.20;;;;;;5057926;28;20181;-87
2021/04/06 06:51:29;;;;;;;10.50;3.20;;;1.30;71.80;;;;;;5058505;28;20220;-88
2021/04/06 06:53:56;;;;;;;7.33;3.10;;;1.20;70.80;;;;;;5044697;28;20211;-88
2021/04/06 06:56:35;;;;;;;8.53;3.17;;;1.10;72.30;;;;;;5047525;28;20200;-88
2021/04/06 06:59:01;;;;;;;7.20;2.80;;;1.10;72.90;;;;;;5063879;28;20236;-86
2021/04/06 07:01:28;;;;;;;9.63;2.97;;;1.20;72.80;;;;;;5045949;28;20192;-85
2021/04/06 07:04:12;;;;;;;5.53;2.80;;;1.10;72.00;;;;;;5046191;28;20196;-84
2021/04/06 07:06:43;;;;;;;6.00;3.43;;;1.20;71.90;;;;;;5054524;28;20203;-86
2021/04/06 07:09:29;;;;;;;11.60;3.30;;;1.20;72.50;;;;;;5048723;28;20184;-87
2021/04/06 07:12:03;;;;;;;7.40;3.20;;;1.20;72.30;;;;;;5048447;28;20169;-86
2021/04/06 07:14:31;;;;;;;8.00;3.17;;;1.30;71.60;;;;;;5064328;28;20263;-85
2021/04/06 07:16:58;;;;;;;6.87;2.90;;;1.20;71.70;;;;;;5062267;28;20200;-85
2021/04/06 07:19:25;;;;;;;5.87;3.70;;;1.40;71.60;;;;;;5064277;28;20195;-87
2021/04/06 07:21:59;;;;;;;6.00;3.23;;;1.20;71.90;;;;;;5059950;28;20672;-88
2021/04/06 07:24:28;;;;;;;8.13;2.97;;;1.20;72.00;;;;;;5049821;28;20192;-86
2021/04/06 07:26:55;;;;;;;8.40;3.53;;;1.20;73.30;;;;;;5053255;28;20184;-86
2021/04/06 07:29:22;;;;;;;9.33;3.50;;;1.30;72.00;;;;;;5059049;28;20261;-86
2021/04/06 07:31:48;;;;;;;9.07;3.47;;;1.30;72.50;;;;;;5037519;28;20180;-87
2021/04/06 07:34:16;;;;;;;6.73;3.13;;;1.20;72.80;;;;;;5028080;28;20208;-86
2021/04/06 07:36:42;;;;;;;5.90;3.30;;;1.20;73.50;;;;;;5061742;28;20196;-86
2021/04/06 07:39:11;;;;;;;7.50;3.90;;;1.20;74.10;;;;;;5062910;28;20180;-87
2021/04/06 07:41:48;;;;;;;11.03;3.47;;;1.30;73.40;;;;;;5062668;28;20200;-85
2021/04/06 07:44:16;;;;;;;8.07;3.17;;;1.30;72.80;;;;;;5063355;28;20189;-88
2021/04/06 07:46:46;;;;;;;9.67;3.13;;;1.30;73.10;;;;;;5060366;28;20184;-84
2021/04/06 07:55:42;;;;;;;6.03;3.00;;;1.40;72.70;;;;;;5035922;28;20204;-85
2021/04/06 07:58:07;;;;;;;8.03;3.07;;;1.50;72.90;;;;;;5045051;28;20208;-85
2021/04/06 08:00:51;;;;;;;8.33;3.63;;;1.50;72.60;;;;;;5046983;28;20189;-86
2021/04/06 08:03:54;;;;;;;7.50;3.53;;;1.50;73.00;;;;;;5061312;28;20204;-86
2021/04/06 08:06:22;;;;;;;5.37;3.40;;;1.50;72.30;;;;;;5063319;28;20183;-85
2021/04/06 08:08:48;;;;;;;7.37;3.60;;;1.70;71.70;;;;;;5051100;28;20189;-85
2021/04/06 08:11:14;;;;;;;5.47;3.57;;;1.80;71.20;;;;;;5043686;28;20192;-86
2021/04/06 08:13:41;;;;;;;8.07;3.70;;;1.90;72.10;;;;;;5042047;28;20220;-86
2021/04/06 08:16:14;;;;;;;7.83;3.93;;;1.90;71.80;;;;;;5058855;28;20184;-85
2021/04/06 08:18:54;;;;;;;5.80;3.43;;;1.90;70.90;;;;;;5060661;28;20191;-87
2021/04/06 08:21:25;;;;;;;10.53;3.43;;;1.80;71.50;;;;;;5060248;28;20212;-86
2021/04/06 08:23:52;;;;;;;5.70;3.60;;;2.00;71.40;;;;;;5061928;28;20208;-86
2021/04/06 08:26:34;;;;;;;8.20;3.57;;;1.90;70.20;;;;;;5060358;28;20204;-86
2021/04/06 08:29:27;;;;;;;7.53;3.37;;;1.80;70.70;;;;;;5062416;28;20187;-86
2021/04/06 08:32:25;;;;;;;10.43;4.07;;;1.90;72.10;;;;;;5061163;28;20173;-85
2021/04/06 08:35:17;;;;;;;6.70;3.43;;;1.90;72.20;;;;;;5002601;28;20224;-87
2021/04/06 08:44:57;;;;;;;7.23;3.47;;;1.70;72.90;;;;;;4887232;29;20236;-87
2021/04/06 08:47:41;;;;;;;8.33;3.83;;;1.90;73.70;;;;;;4888538;29;20223;-85
2021/04/06 08:50:19;;;;;;;7.17;2.83;;;1.90;73.10;;;;;;4950028;28;20224;-86
2021/04/06 08:52:46;;;;;;;9.13;3.60;;;2.00;72.30;;;;;;5058293;28;20203;-86
2021/04/06 08:55:14;;;;;;;8.73;3.33;;;2.00;72.20;;;;;;5044844;28;20200;-85
2021/04/06 08:57:41;;;;;;;6.47;3.53;;;1.90;73.00;;;;;;5060151;28;20218;-85
2021/04/06 09:00:10;;;;;;;9.83;3.97;;;2.00;72.70;;;;;;5060853;28;20176;-84
2021/04/06 09:02:36;;;;;;;8.40;3.70;;;2.10;73.80;;;;;;5059983;28;20185;-84
2021/04/06 09:05:01;;;;;;;9.30;3.43;;;2.00;73.10;;;;;;5061547;28;20213;-85
2021/04/06 09:07:30;;;;;;;9.10;4.20;;;2.10;73.60;;;;;;5040997;28;20188;-84
2021/04/06 09:09:57;;;;;;;5.20;3.37;;;2.10;73.60;;;;;;5041217;28;20242;-85
2021/04/06 09:12:24;;;;;;;8.50;3.23;;;2.40;72.00;;;;;;5059233;28;20188;-87
2021/04/06 09:14:49;;;;;;;7.47;3.33;;;2.40;71.10;;;;;;5049258;28;20239;-88
2021/04/06 09:17:15;;;;;;;6.83;3.77;;;2.60;70.50;;;;;;5047963;28;20291;-87
2021/04/06 09:19:41;;;;;;;6.47;3.47;;;2.60;71.10;;;;;;5030280;28;20184;-85
2021/04/06 09:22:13;;;;;;;5.27;3.37;;;2.60;70.70;;;;;;5052247;28;20189;-85
2021/04/06 09:24:40;;;;;;;7.43;3.43;;;2.40;71.80;;;;;;5045184;28;20680;-87
2021/04/06 09:27:07;;;;;;;7.30;3.57;;;2.50;71.00;;;;;;5058965;28;20212;-86
2021/04/06 09:29:42;;;;;;;5.97;3.73;;;2.50;70.70;;;;;;5057217;28;20192;-86
2021/04/06 09:32:13;;;;;;;7.50;3.83;;;2.60;71.70;;;;;;5056603;28;20175;-86
2021/04/06 09:34:42;;;;;;;4.03;3.47;;;2.70;71.90;;;;;;5038371;28;20219;-86
2021/04/06 09:37:11;;;;;;;7.07;3.43;;;3.00;71.80;;;;;;5038803;28;20204;-86
2021/04/06 09:39:40;;;;;;;5.73;2.93;;;3.20;70.10;;;;;;5055820;28;20603;-86
2021/04/06 09:42:07;;;;;;;4.43;3.23;;;3.50;69.60;;;;;;5040536;28;20172;-84
2021/04/06 09:44:36;;;;;;;8.43;3.37;;;3.90;68.60;;;;;;5058417;28;20218;-86
2021/04/06 09:47:14;;;;;;;6.03;3.70;;;4.50;67.20;;;;;;5056022;28;20188;-86
2021/04/06 09:49:46;;;;;;;5.63;2.67;;;4.60;64.20;;;;;;5042357;28;20211;-85
2021/04/06 09:52:25;;;;;;;7.33;3.27;;;4.40;65.70;;;;;;5061901;28;20490;-85
2021/04/06 09:54:59;;;;;;;7.83;3.30;;;4.50;63.90;;;;;;5046852;28;20219;-85
2021/04/06 09:57:30;;;;;;;4.50;3.07;;;4.40;65.80;;;;;;5062349;28;20862;-84
2021/04/06 09:59:57;;;;;;;5.67;3.30;;;4.40;63.50;;;;;;5061871;28;20167;-86
2021/04/06 10:02:25;;;;;;;6.67;3.90;;;4.80;66.00;;;;;;5062612;28;20235;-86
2021/04/06 10:04:52;;;;;;;7.10;3.27;;;4.80;64.30;;;;;;5062987;28;20235;-85
2021/04/06 10:07:23;;;;;;;5.17;3.10;;;4.60;63.00;;;;;;5059232;28;20212;-88
2021/04/06 10:09:55;;;;;;;5.27;3.20;;;4.50;63.60;;;;;;5064834;28;20660;-84
2021/04/06 10:12:28;;;;;;;6.67;2.70;;;4.60;62.70;;;;;;5061502;28;20191;-86
2021/04/06 10:14:54;;;;;;;7.07;3.33;;;4.60;61.30;;;;;;5044863;28;20316;-85
2021/04/06 10:17:35;;;;;;;6.10;3.17;;;5.00;60.70;;;;;;5041391;28;20205;-85
2021/04/06 10:20:07;;;;;;;7.23;3.17;;;5.10;61.00;;;;;;5061741;28;20188;-84
2021/04/06 10:22:47;;;;;;;4.73;2.83;;;5.20;59.40;;;;;;5074548;28;20172;-84
2021/04/06 10:25:15;;;;;;;4.97;3.43;;;4.90;59.60;;;;;;5065926;28;20248;-85
2021/04/06 10:27:47;;;;;;;6.07;3.43;;;4.90;61.50;;;;;;5062125;28;20212;-86
2021/04/06 10:30:18;;;;;;;5.43;3.33;;;4.80;61.20;;;;;;5065198;28;20156;-85
2021/04/06 10:32:46;;;;;;;6.33;2.97;;;4.70;61.20;;;;;;5061404;28;20184;-85
2021/04/06 10:35:33;;;;;;;8.00;2.90;;;5.00;62.20;;;;;;5061727;28;20188;-85
2021/04/06 10:38:04;;;;;;;5.47;2.70;;;5.30;59.50;;;;;;5064373;28;20278;-85
2021/04/06 10:40:38;;;;;;;4.27;2.90;;;4.90;60.50;;;;;;5065519;28;20180;-85
2021/04/06 10:43:22;;;;;;;5.37;3.17;;;4.90;60.40;;;;;;5062984;28;20213;-84
2021/04/06 10:46:08;;;;;;;6.40;3.30;;;4.80;60.00;;;;;;5064765;28;20564;-85
2021/04/06 10:48:37;;;;;;;5.80;2.70;;;4.80;61.10;;;;;;5062006;28;20188;-85
2021/04/06 10:51:09;;;;;;;7.87;3.10;;;4.90;60.20;;;;;;5045880;28;20184;-85
2021/04/06 10:53:40;;;;;;;6.97;2.90;;;5.00;59.30;;;;;;5063003;28;20212;-85
2021/04/06 10:56:13;;;;;;;6.70;3.50;;;5.00;60.20;;;;;;5063523;28;20200;-86
2021/04/06 10:58:53;;;;;;;6.33;3.00;;;5.00;61.60;;;;;;5063117;28;20200;-85
2021/04/06 11:01:22;;;;;;;5.43;3.10;;;5.10;59.90;;;;;;5063030;28;20192;-86
2021/04/06 11:03:59;;;;;;;6.30;3.10;;;5.30;59.60;;;;;;5061589;28;20208;-85
2021/04/06 11:06:32;;;;;;;5.03;2.83;;;5.50;56.90;;;;;;5061212;28;20184;-86
2021/04/06 11:09:09;;;;;;;5.83;2.97;;;5.60;58.00;;;;;;5063631;28;20259;-86
2021/04/06 11:11:35;;;;;;;11.07;2.90;;;6.10;57.60;;;;;;5064322;28;20526;-86
2021/04/06 11:14:14;;;;;;;8.27;3.10;;;6.30;56.40;;;;;;5063614;28;20215;-85
2021/04/06 11:16:41;;;;;;;4.57;3.40;;;6.40;57.60;;;;;;5046765;28;20510;-86
2021/04/06 11:19:09;;;;;;;6.70;3.07;;;6.40;55.80;;;;;;5047432;28;20205;-84
2021/04/06 11:21:37;;;;;;;5.97;3.20;;;6.30;54.20;;;;;;5060902;28;20173;-85
2021/04/06 11:24:04;;;;;;;6.47;3.57;;;6.70;56.30;;;;;;5064025;28;20258;-86
2021/04/06 11:26:30;;;;;;;5.73;2.70;;;6.80;55.10;;;;;;5064194;28;20198;-85
2021/04/06 11:28:55;;;;;;;6.13;3.37;;;7.00;50.10;;;;;;5057645;28;20176;-86
2021/04/06 11:31:22;;;;;;;5.27;3.00;;;7.30;52.80;;;;;;5062435;28;20198;-86
2021/04/06 11:33:48;;;;;;;4.77;2.87;;;7.80;50.30;;;;;;5059799;28;20209;-85
2021/04/06 11:36:15;;;;;;;5.27;2.97;;;7.40;46.00;;;;;;5060802;28;20215;-86
2021/04/06 11:38:42;;;;;;;3.60;2.40;;;7.30;49.20;;;;;;5062014;28;20246;-85
2021/04/06 11:41:08;;;;;;;6.00;2.77;;;7.50;49.00;;;;;;5063573;28;20235;-85
2021/04/06 11:43:34;;;;;;;6.57;2.30;;;7.40;48.70;;;;;;5063742;28;20192;-86
2021/04/06 11:46:00;;;;;;;5.10;2.30;;;7.40;48.20;;;;;;5066362;28;20195;-84
2021/04/06 11:48:27;;;;;;;4.60;2.20;;;7.80;46.90;;;;;;5071646;28;20180;-86
2021/04/06 11:50:53;;;;;;;5.83;2.50;;;7.60;46.10;;;;;;5076365;28;20177;-84
2021/04/06 11:53:19;;;;;;;5.73;2.80;;;7.70;46.40;;;;;;5066426;28;20222;-86
2021/04/06 11:55:45;;;;;;;4.37;2.47;;;7.90;46.30;;;;;;5062159;28;20208;-87
2021/04/06 11:58:11;;;;;;;6.13;2.47;;;8.20;48.10;;;;;;5062246;28;20310;-85
2021/04/06 12:00:37;;;;;;;9.10;2.80;;;7.60;46.30;;;;;;5055535;28;20598;-86
2021/04/06 12:03:03;;;;;;;2.80;2.23;;;7.30;46.40;;;;;;5060572;28;20283;-86
2021/04/06 12:05:29;;;;;;;4.60;3.23;;;7.80;49.30;;;;;;5052620;28;20184;-87
2021/04/06 12:07:55;;;;;;;6.27;2.77;;;8.10;45.20;;;;;;5043500;28;20195;-87
2021/04/06 12:10:21;;;;;;;6.57;2.60;;;8.20;47.50;;;;;;5049572;28;20192;-86
2021/04/06 12:12:47;;;;;;;6.87;3.17;;;7.50;47.20;;;;;;5061381;28;20188;-86
2021/04/06 12:15:13;;;;;;;4.27;2.93;;;7.30;48.80;;;;;;5062248;28;20567;-88
2021/04/06 12:17:39;;;;;;;5.47;2.57;;;6.90;47.70;;;;;;5045562;28;20228;-88
2021/04/06 12:20:06;;;;;;;6.20;2.80;;;7.00;47.50;;;;;;5017396;28;20221;-87
2021/04/06 12:22:32;;;;;;;4.33;2.50;;;6.50;49.60;;;;;;5062984;28;20177;-86
2021/04/06 12:24:58;;;;;;;2.80;2.07;;;6.10;49.10;;;;;;5057765;28;20258;-87
2021/04/06 12:27:23;;;;;;;6.33;3.40;;;6.20;48.50;;;;;;5062547;28;20184;-87
2021/04/06 12:29:49;;;;;;;4.27;2.00;;;6.20;55.70;;;;;;5058403;28;20196;-86
2021/04/06 12:32:15;;;;;;;5.90;2.80;;;5.80;59.40;;;;;;5056946;28;20188;-86
2021/04/06 12:34:41;;;;;;;4.43;3.33;;;5.60;61.90;;;;;;5061824;28;20208;-86
2021/04/06 12:37:08;;;;;;;4.20;2.47;;;5.50;64.00;;;;;;5059372;28;20779;-86
2021/04/06 12:39:34;;;;;;;4.20;3.53;;;5.60;66.90;;;;;;5055652;28;20192;-86
2021/04/06 12:42:01;;;;;;;9.33;7.67;;;5.50;66.30;;;;;;5061592;28;20219;-86
2021/04/06 12:44:27;;;;;;;11.83;10.63;;;5.40;65.50;;;;;;5061270;28;20800;-86
2021/04/06 12:46:52;;;;;;;5.50;3.50;;;5.40;65.20;;;;;;5063046;28;20187;-85
2021/04/06 12:49:18;;;;;;;10.07;4.70;;;5.30;65.00;;;;;;5060391;28;20192;-86
2021/04/06 12:51:44;;;;;;;5.10;3.57;;;5.30;67.70;;;;;;5044313;28;20247;-86
2021/04/06 12:54:10;;;;;;;4.23;2.00;;;5.10;68.50;;;;;;5063649;28;20273;-86
2021/04/06 12:56:36;;;;;;;2.13;1.70;;;4.60;69.00;;;;;;5064080;28;20195;-87
2021/04/06 12:59:03;;;;;;;4.30;1.70;;;4.00;72.60;;;;;;5044782;28;20593;-87
2021/04/06 13:01:28;;;;;;;1.67;1.57;;;3.80;72.00;;;;;;5045875;28;20215;-86
2021/04/06 13:03:54;;;;;;;2.03;1.50;;;3.80;72.50;;;;;;5063328;28;20303;-86
2021/04/06 13:06:20;;;;;;;1.43;1.30;;;3.60;73.30;;;;;;5060920;28;20187;-86
2021/04/06 13:08:46;;;;;;;1.73;1.60;;;3.50;75.50;;;;;;5060805;28;20196;-87
2021/04/06 13:11:12;;;;;;;5.00;2.20;;;3.90;77.60;;;;;;5060435;28;20192;-86
2021/04/06 13:13:37;;;;;;;1.77;1.60;;;4.00;77.30;;;;;;5039916;28;20208;-87
2021/04/06 13:16:03;;;;;;;1.83;1.50;;;4.00;75.20;;;;;;5058702;28;20283;-86
2021/04/06 13:18:29;;;;;;;2.20;1.47;;;4.00;74.70;;;;;;5061193;28;20234;-86
2021/04/06 13:20:56;;;;;;;2.30;1.40;;;4.00;77.50;;;;;;5058690;28;20645;-86
2021/04/06 13:23:22;;;;;;;2.67;1.70;;;4.00;69.70;;;;;;5040670;28;20279;-86
2021/04/06 13:25:48;;;;;;;1.57;1.33;;;4.30;69.10;;;;;;5058204;28;20233;-86
2021/04/06 13:28:13;;;;;;;1.30;1.30;;;4.90;69.10;;;;;;5041862;28;20184;-86
2021/04/06 13:30:39;;;;;;;2.70;1.93;;;5.40;64.50;;;;;;5042001;28;20224;-85
2021/04/06 13:33:05;;;;;;;3.20;1.80;;;6.20;60.70;;;;;;5059003;28;20215;-86
2021/04/06 13:35:31;;;;;;;2.87;1.30;;;6.60;62.30;;;;;;5055717;28;20192;-85
2021/04/06 13:37:57;;;;;;;3.07;1.70;;;6.90;56.00;;;;;;5058531;28;20216;-83
2021/04/06 13:40:24;;;;;;;2.77;1.80;;;6.80;54.60;;;;;;5057595;28;20196;-84
2021/04/06 13:42:51;;;;;;;2.97;2.20;;;6.50;56.10;;;;;;5038368;28;20708;-85
2021/04/06 13:45:20;;;;;;;5.60;2.90;;;7.30;51.70;;;;;;5053561;28;20192;-85
2021/04/06 13:47:46;;;;;;;3.50;2.07;;;7.50;49.10;;;;;;5049113;28;20614;-86
2021/04/06 13:50:14;;;;;;;3.93;1.97;;;7.30;48.40;;;;;;5039249;28;20226;-85
2021/04/06 13:52:39;;;;;;;4.60;3.43;;;7.50;47.80;;;;;;5058788;28;20203;-86
2021/04/06 13:55:08;;;;;;;2.10;1.90;;;8.00;45.10;;;;;;5033248;28;20204;-85